^^
Grace C. Lehan Memorial Weather Station Historical Data
Daily Summary for August 11, 2022 Units:  English    Metric   Both
Daily Weekly Monthly Yearly
  High: Low: Average:
Temperature: 89 °F 69.4 °F 78.2 °F
Dew Point: 67.5 °F 60.1 °F 63.7 °F
Humidity: 83% 41.6% 63%
Wind Speed: 4.1mph 0mph 0.3mph
Wind Gust: 15mph - -
Wind- - South
Pressure: 29.95 in 29.78 in -
Precipitation: 0.01 in    
 
 
Tabular Data for August 11, 2022
Time Temperature Dew Point Pressure Wind Wind Speed Wind Gust Humidity Rainfall Rate (Hourly) solar
00:00 73.2 °F 62 °F 29.95 in Calm     68% 0.00 in 0 W/m2
00:09 73.3 °F 62.9 °F 29.95 in Calm     69.9% 0.00 in 0 W/m2
00:14 73.3 °F 63 °F 29.95 in Calm     70.1% 0.00 in 0 W/m2
00:19 73.3 °F 63 °F 29.95 in Calm     70.2% 0.00 in 0 W/m2
00:24 73.3 °F 63.2 °F 29.95 in Calm     70.6% 0.00 in 0 W/m2
00:29 73.3 °F 63.5 °F 29.95 in Calm     71.5% 0.00 in 0 W/m2
00:34 73.3 °F 63.7 °F 29.95 in Calm     72% 0.00 in 0 W/m2
00:39 73.3 °F 63.7 °F 29.94 in Calm     72% 0.00 in 0 W/m2
00:44 73.3 °F 63.7 °F 29.94 in Calm     72% 0.00 in 0 W/m2
00:49 73.3 °F 63.7 °F 29.94 in Calm     72% 0.00 in 0 W/m2
00:54 73.2 °F 63.8 °F 29.94 in Calm     72.3% 0.00 in 0 W/m2
00:59 73.2 °F 63.7 °F 29.94 in Calm     72.2% 0.00 in 0 W/m2
01:04 73.2 °F 63.6 °F 29.94 in Calm     72% 0.00 in 0 W/m2
01:09 73.1 °F 63.7 °F 29.94 in Calm     72.4% 0.00 in 0 W/m2
01:14 73.1 °F 63.9 °F 29.94 in Calm     73% 0.00 in 0 W/m2
01:19 73.1 °F 63.9 °F 29.94 in Calm     73% 0.00 in 0 W/m2
01:24 73.1 °F 63.9 °F 29.94 in Calm     73% 0.00 in 0 W/m2
01:29 73.1 °F 63.9 °F 29.94 in Calm     73% 0.00 in 0 W/m2
01:34 73.1 °F 63.9 °F 29.93 in Calm     73% 0.00 in 0 W/m2
01:39 73.1 °F 63.9 °F 29.93 in Calm     73% 0.00 in 0 W/m2
01:44 73.1 °F 64.2 °F 29.93 in Calm     73.7% 0.00 in 0 W/m2
01:49 73.1 °F 64.3 °F 29.93 in Calm     74% 0.00 in 0 W/m2
01:54 73.1 °F 64.3 °F 29.93 in Calm     74% 0.00 in 0 W/m2
01:59 73.1 °F 64.3 °F 29.93 in Calm     74% 0.00 in 0 W/m2
02:04 73 °F 64.4 °F 29.93 in Calm     74.4% 0.00 in 0 W/m2
02:09 73 °F 64.6 °F 29.93 in Calm     75% 0.00 in 0 W/m2
02:14 72.9 °F 64.6 °F 29.93 in Calm     75% 0.00 in 0 W/m2
02:19 72.8 °F 64.5 °F 29.93 in Calm     75% 0.00 in 0 W/m2
02:24 72.8 °F 64.4 °F 29.93 in Calm     75% 0.00 in 0 W/m2
02:29 72.7 °F 64.6 °F 29.92 in Calm     75.8% 0.00 in 0 W/m2
02:34 72.6 °F 64.6 °F 29.92 in Calm     76% 0.00 in 0 W/m2
02:39 72.6 °F 64.6 °F 29.92 in Calm     76% 0.00 in 0 W/m2
02:44 72.6 °F 64.4 °F 29.92 in Calm     75.6% 0.00 in 0 W/m2
02:49 72.5 °F 64.1 °F 29.92 in Calm     75% 0.00 in 0 W/m2
02:54 72.4 °F 64.1 °F 29.92 in Calm     75% 0.00 in 0 W/m2
02:59 72.4 °F 64 °F 29.92 in Calm     75% 0.00 in 0 W/m2
03:04 72.4 °F 64.2 °F 29.92 in Calm     75.5% 0.00 in 0 W/m2
03:09 72.4 °F 64.4 °F 29.91 in Calm     76% 0.00 in 0 W/m2
03:14 72.4 °F 64.1 °F 29.91 in Calm     75.2% 0.00 in 0 W/m2
03:19 72.3 °F 64 °F 29.91 in Calm     75% 0.00 in 0 W/m2
03:24 72.3 °F 63.9 °F 29.91 in Calm     75% 0.00 in 0 W/m2
03:29 72.3 °F 63.9 °F 29.91 in Calm     75% 0.00 in 0 W/m2
03:34 72.2 °F 63.9 °F 29.91 in Calm     75% 0.00 in 0 W/m2
03:38 72.2 °F 63.8 °F 29.90 in Calm     75% 0.00 in 0 W/m2
04:09 71.4 °F 63.1 °F 29.89 in Calm     75% 0.00 in 0 W/m2
04:14 71.3 °F 63.3 °F 29.89 in Calm     76% 0.00 in 0 W/m2
04:19 71.1 °F 63.2 °F 29.89 in Calm     76% 0.00 in 0 W/m2
04:24 70.9 °F 63 °F 29.89 in Calm     76% 0.00 in 0 W/m2
04:29 70.8 °F 62.9 °F 29.89 in Calm     76.2% 0.00 in 0 W/m2
04:34 70.6 °F 63.1 °F 29.89 in Calm     77% 0.00 in 0 W/m2
04:39 70.5 °F 63 °F 29.89 in Calm     77% 0.00 in 0 W/m2
04:44 70.4 °F 63.1 °F 29.89 in Calm     77.6% 0.00 in 0 W/m2
04:49 70.3 °F 63.1 °F 29.89 in Calm     78% 0.00 in 0 W/m2
04:54 70.1 °F 63 °F 29.89 in Calm     78% 0.00 in 0 W/m2
04:59 70 °F 62.9 °F 29.89 in Calm     78.1% 0.00 in 0 W/m2
05:04 69.9 °F 63.1 °F 29.89 in Calm     79% 0.00 in 0 W/m2
05:09 69.8 °F 63 °F 29.89 in Calm     79% 0.00 in 0 W/m2
05:14 69.6 °F 62.8 °F 29.88 in Calm     79% 0.00 in 0 W/m2
05:19 69.5 °F 63 °F 29.88 in Calm     79.7% 0.00 in 0 W/m2
05:24 69.5 °F 63.1 °F 29.88 in Calm     80% 0.00 in 0 W/m2
05:29 69.4 °F 63 °F 29.88 in Calm     80% 0.00 in 0 W/m2
05:34 69.4 °F 63 °F 29.88 in Calm     80% 0.00 in 0 W/m2
05:39 69.4 °F 63 °F 29.88 in Calm     80% 0.00 in 0 W/m2
05:44 69.4 °F 63 °F 29.88 in Calm     80.2% 0.00 in 0 W/m2
05:49 69.5 °F 63.4 °F 29.89 in Calm     81% 0.00 in 0 W/m2
05:54 69.5 °F 63.4 °F 29.89 in Calm     81% 0.00 in 0 W/m2
05:59 69.6 °F 63.6 °F 29.89 in Calm     81.2% 0.00 in 0 W/m2
06:04 69.6 °F 63.9 °F 29.89 in Calm     81.9% 0.00 in 5 W/m2
06:09 69.7 °F 64 °F 29.89 in Calm     82% 0.00 in 5 W/m2
06:14 69.7 °F 63.8 °F 29.89 in Calm     81.6% 0.00 in 7 W/m2
06:19 69.8 °F 64 °F 29.89 in Calm     81.8% 0.00 in 7 W/m2
06:24 69.8 °F 64.1 °F 29.89 in Calm     82% 0.00 in 9 W/m2
06:29 69.9 °F 64.1 °F 29.89 in Calm     82% 0.00 in 11 W/m2
06:34 69.9 °F 63.9 °F 29.89 in Calm     81.2% 0.00 in 11 W/m2
06:39 70 °F 63.9 °F 29.89 in Calm     81% 0.00 in 18 W/m2
06:44 70.1 °F 64 °F 29.89 in Calm     81% 0.00 in 23 W/m2
06:49 70.1 °F 63.7 °F 29.89 in Calm     80.1% 0.00 in 23 W/m2
06:54 70.2 °F 63.8 °F 29.89 in Calm     80% 0.00 in 23 W/m2
06:59 70.3 °F 63.7 °F 29.89 in Calm     79.5% 0.00 in 30 W/m2
07:04 70.4 °F 63.6 °F 29.89 in Calm     79.2% 0.00 in 42 W/m2
07:09 70.4 °F 63.6 °F 29.89 in Calm     79% 0.00 in 51 W/m2
07:14 70.4 °F 63.3 °F 29.89 in Calm     78.2% 0.00 in 56 W/m2
07:19 70.5 °F 63.3 °F 29.89 in Calm     78% 0.00 in 69 W/m2
07:24 70.5 °F 63 °F 29.89 in Calm     77.1% 0.00 in 69 W/m2
07:29 70.7 °F 63.1 °F 29.89 in Calm     77% 0.00 in 67 W/m2
07:34 70.8 °F 63.4 °F 29.89 in Calm     77.4% 0.00 in 74 W/m2
07:39 71 °F 63.5 °F 29.89 in Calm     77.3% 0.00 in 90 W/m2
07:44 71.1 °F 63.9 °F 29.89 in Calm     77.8% 0.00 in 105 W/m2
07:49 71.4 °F 64.3 °F 29.89 in Calm     78.3% 0.00 in 107 W/m2
07:54 71.5 °F 64.2 °F 29.89 in Calm     77.8% 0.00 in 100 W/m2
07:59 71.7 °F 64.2 °F 29.89 in Calm     77.2% 0.00 in 107 W/m2
08:00 71.8 °F 64.2 °F 29.89 in Calm     77% 0.00 in 107 W/m2
08:09 72.1 °F 64.9 °F 29.89 in Calm     78% 0.00 in 153 W/m2
08:14 72.3 °F 65.1 °F 29.89 in Calm     78% 0.00 in 158 W/m2
08:19 72.6 °F 65.2 °F 29.89 in Calm     77.7% 0.00 in 146 W/m2
08:24 72.8 °F 65.2 °F 29.89 in Calm     77% 0.00 in 118 W/m2
08:29 73 °F 65.5 °F 29.89 in Calm     77.5% 0.00 in 120 W/m2
08:34 73 °F 65.5 °F 29.89 in Calm     77.2% 0.00 in 118 W/m2
08:39 73.2 °F 65.7 °F 29.89 in Calm     77.5% 0.00 in 114 W/m2
08:44 73.2 °F 65.5 °F 29.89 in Calm     76.8% 0.00 in 111 W/m2
08:49 73.3 °F 65.7 °F 29.89 in Calm     77% 0.00 in 113 W/m2
08:54 73.3 °F 65.6 °F 29.88 in Calm     76.8% 0.00 in 121 W/m2
08:59 73.4 °F 65.6 °F 29.88 in Calm     76.5% 0.00 in 125 W/m2
09:04 73.4 °F 65.1 °F 29.88 in Calm     75.5% 0.00 in 132 W/m2
09:09 73.3 °F 64.9 °F 29.88 in Calm     75% 0.00 in 139 W/m2
09:14 73.2 °F 64.9 °F 29.88 in Calm     75.2% 0.00 in 144 W/m2
09:19 73.3 °F 65.2 °F 29.89 in Calm     75.8% 0.00 in 149 W/m2
09:24 73.4 °F 65.4 °F 29.88 in Calm     76.1% 0.00 in 162 W/m2
09:29 73.6 °F 65.8 °F 29.88 in Calm     76.8% 0.00 in 190 W/m2
09:34 73.7 °F 65.7 °F 29.88 in Calm     76% 0.00 in 230 W/m2
09:39 73.9 °F 65.8 °F 29.88 in Calm     76% 0.00 in 267 W/m2
09:44 74.2 °F 66.4 °F 29.88 in Calm     76.7% 0.00 in 267 W/m2
09:49 74.5 °F 66.3 °F 29.88 in Calm     75.7% 0.00 in 264 W/m2
09:54 74.6 °F 66.1 °F 29.88 in Calm     75% 0.00 in 257 W/m2
09:59 74.8 °F 66.6 °F 29.88 in Calm     75.7% 0.00 in 318 W/m2
10:04 74.9 °F 66.6 °F 29.88 in Calm     75.3% 0.00 in 318 W/m2
10:09 75.2 °F 67.5 °F 29.87 in Calm     76.9% 0.00 in 274 W/m2
10:14 75.5 °F 66.8 °F 29.87 in Calm     74.5% 0.00 in 362 W/m2
10:19 75.8 °F 66 °F 29.87 in Calm     71.7% 0.00 in 439 W/m2
10:24 76.2 °F 66.3 °F 29.87 in Calm     71.5% 0.00 in 452 W/m2
10:29 76.7 °F 65.4 °F 29.87 in Calm     68.1% 0.00 in 464 W/m2
10:34 77.1 °F 65.1 °F 29.87 in Calm   1 mph 66.5% 0.00 in 490 W/m2
10:39 77.4 °F 64.2 °F 29.87 in NE 0.2 mph 2 mph 63.7% 0.00 in 359 W/m2
10:44 77.6 °F 63.7 °F 29.87 in Calm   2 mph 62.3% 0.00 in 459 W/m2
10:49 77.9 °F 64 °F 29.87 in Calm   2 mph 62.4% 0.00 in 654 W/m2
10:54 78.4 °F 64.6 °F 29.87 in North 0.7 mph 4 mph 62.5% 0.00 in 872 W/m2
10:59 79.3 °F 64.5 °F 29.87 in North 0.4 mph 4 mph 60.6% 0.00 in 547 W/m2
11:04 80 °F 64.5 °F 29.87 in NNE 0.7 mph 4 mph 59.4% 0.00 in 698 W/m2
11:09 80.4 °F 64.2 °F 29.87 in NNE 0.1 mph 2 mph 57.9% 0.00 in 698 W/m2
11:14 80.6 °F 64 °F 29.86 in NNE 0.1 mph 2 mph 57.1% 0.00 in 777 W/m2
11:19 81 °F 64.5 °F 29.86 in NNE 0.8 mph 5 mph 57.3% 0.00 in 780 W/m2
11:24 81.6 °F 63.9 °F 29.86 in ENE 1.2 mph 5 mph 55% 0.00 in 800 W/m2
11:29 81.9 °F 63.4 °F 29.86 in East 0.2 mph 5 mph 53.6% 0.00 in 786 W/m2
11:34 82.1 °F 64.1 °F 29.86 in ENE 0.4 mph 5 mph 54.6% 0.00 in 779 W/m2
11:39 82.5 °F 64 °F 29.86 in ENE 0.6 mph 3 mph 53.8% 0.00 in 585 W/m2
11:44 82.7 °F 64.3 °F 29.86 in NE 0.3 mph 3 mph 53.8% 0.00 in 1051 W/m2
11:49 83.2 °F 64.3 °F 29.86 in ENE 0.6 mph 4 mph 53.1% 0.00 in 1014 W/m2
11:54 83.8 °F 63.2 °F 29.86 in ENE 0.6 mph 4 mph 50.2% 0.00 in 1014 W/m2
11:59 84.2 °F 64.2 °F 29.86 in ENE 0.5 mph 4 mph 51.1% 0.00 in 962 W/m2
12:00 84.3 °F 63.1 °F 29.86 in Calm   4 mph 49% 0.00 in 513 W/m2
12:09 83.7 °F 62.9 °F 29.86 in ENE 0.8 mph 4 mph 49.7% 0.00 in 480 W/m2
12:14 83.2 °F 62.4 °F 29.86 in ENE 0.6 mph 4 mph 49.7% 0.00 in 555 W/m2
12:19 82.9 °F 62.4 °F 29.86 in Calm   4 mph 50.1% 0.00 in 568 W/m2
12:24 82.8 °F 63.9 °F 29.86 in ENE 0.2 mph 4 mph 53.1% 0.00 in 406 W/m2
12:29 82.9 °F 64.7 °F 29.86 in ENE 0.3 mph 4 mph 54.2% 0.00 in 394 W/m2
12:34 83.1 °F 64.5 °F 29.86 in ENE 0.6 mph 4 mph 53.4% 0.00 in 837 W/m2
12:39 83.4 °F 64.5 °F 29.85 in ENE 0.7 mph 4 mph 53% 0.00 in 724 W/m2
12:44 83.5 °F 63.6 °F 29.85 in ENE 0.1 mph 4 mph 51.3% 0.00 in 724 W/m2
12:49 83.2 °F 63.1 °F 29.85 in ENE 0.2 mph 4 mph 50.9% 0.00 in 362 W/m2
12:54 82.7 °F 62.3 °F 29.85 in ENE 0.4 mph 4 mph 50.2% 0.00 in 696 W/m2
12:59 82.3 °F 62.6 °F 29.85 in ENE 0.2 mph 4 mph 51.4% 0.00 in 1116 W/m2
13:04 82.7 °F 63.6 °F 29.85 in Calm   4 mph 52.6% 0.00 in 810 W/m2
13:09 83.3 °F 63.6 °F 29.84 in ENE 0.1 mph 2 mph 51.4% 0.00 in 1202 W/m2
13:14 83.9 °F 64.4 °F 29.84 in NW 1.7 mph 5 mph 51.9% 0.00 in 865 W/m2
13:19 84.6 °F 64 °F 29.84 in West 1.1 mph 5 mph 50.1% 0.00 in 657 W/m2
13:24 84.9 °F 64.3 °F 29.84 in Calm   5 mph 50.2% 0.00 in 487 W/m2
13:29 85 °F 64 °F 29.84 in West 0.2 mph 5 mph 49.6% 0.00 in 485 W/m2
13:34 85.2 °F 63.8 °F 29.83 in Calm   5 mph 48.9% 0.00 in 520 W/m2
13:39 85.1 °F 63.8 °F 29.83 in West 0.4 mph 3 mph 49% 0.00 in 520 W/m2
13:44 85 °F 63.4 °F 29.83 in Calm   3 mph 48.3% 0.00 in 439 W/m2
13:49 85 °F 63.5 °F 29.83 in Calm   3 mph 48.7% 0.00 in 399 W/m2
13:54 85.2 °F 64.1 °F 29.82 in WNW 0.5 mph 4 mph 49.4% 0.00 in 1086 W/m2
13:59 85.5 °F 63.9 °F 29.82 in WNW 0.5 mph 4 mph 48.6% 0.00 in 1086 W/m2
14:04 85.7 °F 63.1 °F 29.82 in WNW 0.2 mph 4 mph 47% 0.00 in 1032 W/m2
14:09 85.6 °F 63.3 °F 29.82 in WNW 0.3 mph 4 mph 47.4% 0.00 in 1004 W/m2
14:14 85.8 °F 62.8 °F 29.82 in Calm   4 mph 46.2% 0.00 in 626 W/m2
14:19 86.1 °F 63.7 °F 29.82 in WSW 0.7 mph 6 mph 47.3% 0.00 in 1037 W/m2
14:24 86.3 °F 64 °F 29.82 in WSW 0.5 mph 6 mph 47.5% 0.00 in 788 W/m2
14:29 86.5 °F 64.6 °F 29.82 in West 0.2 mph 6 mph 48.2% 0.00 in 788 W/m2
14:34 86.8 °F 64.1 °F 29.82 in Calm   6 mph 46.8% 0.00 in 701 W/m2
14:39 86.9 °F 64 °F 29.81 in West 0.2 mph 3 mph 46.5% 0.00 in 701 W/m2
14:44 87 °F 64.1 °F 29.81 in Calm   3 mph 46.7% 0.00 in 541 W/m2
14:49 87.1 °F 64.6 °F 29.81 in WSW 0.6 mph 10 mph 47.2% 0.00 in 1053 W/m2
14:54 87.3 °F 64 °F 29.81 in SW 0.5 mph 10 mph 46% 0.00 in 1067 W/m2
14:59 87.5 °F 63.4 °F 29.81 in SSW 1 mph 10 mph 44.8% 0.00 in 858 W/m2
15:04 87.8 °F 64.1 °F 29.81 in WSW 0.8 mph 10 mph 45.5% 0.00 in 826 W/m2
15:09 88.2 °F 64 °F 29.81 in WSW 1.6 mph 13 mph 44.7% 0.00 in 826 W/m2
15:14 88.6 °F 64 °F 29.81 in West 0.2 mph 13 mph 44.1% 0.00 in 680 W/m2
15:19 88.9 °F 64.3 °F 29.81 in West 0.1 mph 13 mph 44.2% 0.00 in 652 W/m2
15:24 89 °F 63.4 °F 29.81 in WNW 1.1 mph 13 mph 42.7% 0.00 in 547 W/m2
15:29 88.7 °F 62.6 °F 29.81 in WNW 0.1 mph 13 mph 41.8% 0.00 in 547 W/m2
15:34 88.2 °F 62.5 °F 29.80 in Calm   13 mph 42.5% 0.00 in 650 W/m2
15:39 87.8 °F 63 °F 29.80 in WNW 0.1 mph 1 mph 43.7% 0.00 in 547 W/m2
15:44 87.6 °F 62 °F 29.80 in WNW 0.1 mph 2 mph 42.4% 0.00 in 626 W/m2
15:49 87.4 °F 62.5 °F 29.80 in WNW 0.1 mph 2 mph 43.4% 0.00 in 580 W/m2
15:54 87.6 °F 63.4 °F 29.80 in WNW 0.3 mph 2 mph 44.6% 0.00 in 510 W/m2
15:59 87.9 °F 63.5 °F 29.80 in NW 1.5 mph 4 mph 44.4% 0.00 in 450 W/m2
16:00 87.9 °F 63.3 °F 29.79 in Calm   4 mph 44% 0.00 in 279 W/m2
16:09 88.1 °F 62.4 °F 29.79 in WNW 4.1 mph 13 mph 42.4% 0.00 in 775 W/m2
16:14 88.1 °F 62.5 °F 29.79 in WNW 1.2 mph 13 mph 42.6% 0.00 in 650 W/m2
16:19 88.1 °F 62.7 °F 29.79 in WNW 1.5 mph 13 mph 42.8% 0.00 in 141 W/m2
16:24 88.2 °F 63.3 °F 29.79 in West 1 mph 13 mph 43.7% 0.00 in 134 W/m2
16:29 88.3 °F 63.3 °F 29.79 in WSW 0.6 mph 13 mph 43.5% 0.00 in 172 W/m2
16:34 88.4 °F 62.9 °F 29.79 in WSW 0.6 mph 13 mph 42.8% 0.00 in 163 W/m2
16:39 88.3 °F 62.2 °F 29.79 in WSW 0.4 mph 3 mph 41.8% 0.00 in 160 W/m2
16:44 88.1 °F 62.4 °F 29.79 in WSW 0.3 mph 3 mph 42.3% 0.00 in 183 W/m2
16:49 87.9 °F 62 °F 29.79 in WSW 0.3 mph 3 mph 42.2% 0.00 in 179 W/m2
16:54 87.7 °F 62.6 °F 29.79 in WSW 0.1 mph 3 mph 43.3% 0.00 in 160 W/m2
16:59 87.6 °F 62.3 °F 29.79 in WSW 0.3 mph 3 mph 43% 0.00 in 153 W/m2
17:04 87.4 °F 62.6 °F 29.79 in SW 0.9 mph 6 mph 43.6% 0.00 in 200 W/m2
17:09 87.2 °F 61.9 °F 29.79 in SW 0.6 mph 6 mph 42.8% 0.00 in 197 W/m2
17:14 87 °F 61.9 °F 29.79 in SW 0.3 mph 6 mph 43.2% 0.00 in 158 W/m2
17:19 87 °F 61.6 °F 29.79 in West 1.8 mph 9 mph 42.7% 0.00 in 121 W/m2
17:24 87 °F 61.1 °F 29.79 in WNW 3.9 mph 10 mph 42% 0.00 in 76 W/m2
17:29 86.7 °F 60.6 °F 29.79 in WNW 3 mph 11 mph 41.6% 0.00 in 79 W/m2
17:34 86.4 °F 61.2 °F 29.79 in NW 1.3 mph 11 mph 42.9% 0.00 in 79 W/m2
17:39 86.1 °F 60.7 °F 29.79 in NW 1.9 mph 6 mph 42.5% 0.00 in 74 W/m2
17:44 85.9 °F 60.7 °F 29.79 in NW 1 mph 6 mph 42.8% 0.00 in 65 W/m2
17:49 85.8 °F 60.3 °F 29.79 in NW 1.8 mph 9 mph 42.4% 0.00 in 56 W/m2
17:54 85.8 °F 60.6 °F 29.79 in NW 1.1 mph 9 mph 42.8% 0.00 in 60 W/m2
17:59 85.8 °F 60.5 °F 29.79 in NNE 0.1 mph 9 mph 42.6% 0.00 in 67 W/m2
18:04 85.9 °F 60.2 °F 29.78 in NE 0.6 mph 9 mph 42% 0.00 in 70 W/m2
18:09 85.9 °F 60.5 °F 29.79 in NNE 0.1 mph 4 mph 42.5% 0.00 in 72 W/m2
18:14 85.9 °F 60.2 °F 29.79 in NNE 0.2 mph 4 mph 42% 0.00 in 72 W/m2
18:19 85.9 °F 60.1 °F 29.79 in NE 1.1 mph 4 mph 42% 0.00 in 65 W/m2
18:24 85.8 °F 60.2 °F 29.79 in NE 1.1 mph 4 mph 42.2% 0.00 in 60 W/m2
18:29 85.7 °F 60.2 °F 29.79 in North 1.1 mph 5 mph 42.3% 0.00 in 47 W/m2
18:34 85.6 °F 60.6 °F 29.79 in NW 1.5 mph 5 mph 43% 0.00 in 39 W/m2
18:39 85.5 °F 60.7 °F 29.79 in NW 0.7 mph 4 mph 43.4% 0.00 in 33 W/m2
18:44 85.5 °F 60.5 °F 29.79 in Calm   4 mph 43.1% 0.00 in 32 W/m2
18:49 85.4 °F 60.2 °F 29.79 in NW 0.1 mph 4 mph 42.7% 0.00 in 30 W/m2
18:54 85.4 °F 60.5 °F 29.79 in Calm   4 mph 43.2% 0.00 in 28 W/m2
18:59 85.3 °F 61 °F 29.79 in NNW 0.6 mph 4 mph 44.1% 0.00 in 26 W/m2
19:04 85.2 °F 61.6 °F 29.79 in North 0.6 mph 4 mph 45.3% 0.00 in 25 W/m2
19:09 84.9 °F 61.9 °F 29.79 in North 0.6 mph 3 mph 46% 0.00 in 19 W/m2
19:14 84.6 °F 62 °F 29.80 in NNE 0.5 mph 3 mph 46.7% 0.00 in 14 W/m2
19:19 84.3 °F 61.9 °F 29.80 in Calm   3 mph 47% 0.00 in 19 W/m2
19:24 84.1 °F 62.1 °F 29.80 in NNE 0.4 mph 4 mph 47.7% 0.00 in 18 W/m2
19:29 83.8 °F 62.3 °F 29.80 in NNE 0.1 mph 4 mph 48.4% 0.00 in 16 W/m2
19:34 83.6 °F 62.6 °F 29.80 in NNE 0.3 mph 4 mph 49.3% 0.00 in 14 W/m2
19:39 83.3 °F 62.7 °F 29.80 in Calm   3 mph 50% 0.00 in 9 W/m2
19:44 83.1 °F 62.6 °F 29.80 in Calm   3 mph 50.2% 0.00 in 7 W/m2
19:49 82.8 °F 62.8 °F 29.81 in Calm   3 mph 51% 0.00 in 5 W/m2
19:54 82.6 °F 62.6 °F 29.81 in Calm   3 mph 51% 0.00 in 0 W/m2
19:59 82.3 °F 62.6 °F 29.81 in Calm   3 mph 51.3% 0.00 in 0 W/m2
20:00 82.2 °F 62.8 °F 29.81 in Calm   3 mph 52% 0.00 in 0 W/m2
20:09 81.9 °F 62.5 °F 29.81 in Calm     52% 0.00 in 0 W/m2
20:14 81.6 °F 62.5 °F 29.82 in Calm     52.2% 0.00 in 0 W/m2
20:19 81.4 °F 62.6 °F 29.82 in Calm     53% 0.00 in 0 W/m2
20:24 81.2 °F 62.4 °F 29.82 in Calm     53% 0.00 in 0 W/m2
20:29 80.9 °F 62.7 °F 29.82 in Calm     53.9% 0.00 in 0 W/m2
20:34 80.6 °F 62.8 °F 29.82 in Calm     54.7% 0.00 in 0 W/m2
20:39 80.4 °F 63.2 °F 29.82 in Calm     55.9% 0.00 in 0 W/m2
20:44 80.1 °F 63.3 °F 29.82 in Calm     56.6% 0.00 in 0 W/m2
20:49 79.9 °F 64 °F 29.82 in Calm     58.5% 0.00 in 0 W/m2
20:54 79.6 °F 64.4 °F 29.83 in Calm     59.6% 0.00 in 0 W/m2
20:59 79.4 °F 64.4 °F 29.83 in Calm     60% 0.00 in 0 W/m2
21:04 79.2 °F 64.5 °F 29.83 in Calm     60.7% 0.00 in 0 W/m2
21:09 79 °F 64.7 °F 29.83 in Calm     61.5% 0.00 in 0 W/m2
21:14 78.8 °F 64.7 °F 29.83 in Calm     62% 0.00 in 0 W/m2
21:19 78.6 °F 64.9 °F 29.83 in Calm     62.8% 0.00 in 0 W/m2
21:24 78.4 °F 64.8 °F 29.84 in Calm     63% 0.00 in 0 W/m2
21:29 78.2 °F 65 °F 29.84 in Calm     63.9% 0.00 in 0 W/m2
21:34 78 °F 65.1 °F 29.84 in Calm     64.6% 0.00 in 0 W/m2
21:39 77.8 °F 65.1 °F 29.85 in Calm     65% 0.00 in 0 W/m2
21:44 77.6 °F 65 °F 29.85 in NNE 0.3 mph 4 mph 65.2% 0.00 in 0 W/m2
21:49 77.5 °F 65.4 °F 29.85 in NNE 0.2 mph 4 mph 66.3% 0.00 in 0 W/m2
21:54 77.3 °F 65.7 °F 29.86 in North 0.3 mph 5 mph 67.4% 0.00 in 0 W/m2
21:59 77.1 °F 65.4 °F 29.86 in NNW 0.1 mph 5 mph 67.1% 0.00 in 0 W/m2
22:04 77.1 °F 64.9 °F 29.86 in WNW 2.3 mph 15 mph 66.1% 0.00 in 0 W/m2
22:09 77.2 °F 64.3 °F 29.87 in NW 2.3 mph 15 mph 64.4% 0.00 in 0 W/m2
22:14 77.2 °F 63.3 °F 29.87 in NW 0.3 mph 15 mph 62.1% 0.00 in 0 W/m2
22:19 77.2 °F 63.1 °F 29.87 in WNW 0.9 mph 15 mph 61.8% 0.00 in 0 W/m2
22:24 77.2 °F 63.3 °F 29.87 in NW 1.4 mph 15 mph 62.1% 0.00 in 0 W/m2
22:29 77.2 °F 64 °F 29.88 in WNW 0.9 mph 15 mph 63.9% 0.00 in 0 W/m2
22:34 77 °F 64.5 °F 29.88 in NW 0.3 mph 15 mph 65.2% 0.00 in 0 W/m2
22:39 76.7 °F 64.6 °F 29.87 in NW 0.2 mph 4 mph 66.2% 0.00 in 0 W/m2
22:44 76.4 °F 64.7 °F 29.87 in NW 0.4 mph 4 mph 67.2% 0.00 in 0 W/m2
22:49 76 °F 64.5 °F 29.87 in Calm   4 mph 67.7% 0.00 in 0 W/m2
22:54 75.7 °F 64.6 °F 29.87 in Calm   4 mph 68.6% 0.00 in 0 W/m2
22:59 75.4 °F 65.1 °F 29.87 in Calm   4 mph 70.3% 0.01 in 0 W/m2
23:04 75.1 °F 65.5 °F 29.88 in Calm   4 mph 72.2% 0.01 in 0 W/m2
23:09 74.7 °F 66 °F 29.87 in Calm     74.3% 0.01 in 0 W/m2
23:14 74.3 °F 66.3 °F 29.87 in Calm     76% 0.01 in 0 W/m2
23:19 73.9 °F 65.9 °F 29.87 in Calm     76% 0.01 in 0 W/m2
23:24 73.5 °F 65.6 °F 29.87 in Calm     76.3% 0.01 in 0 W/m2
23:29 73.2 °F 65.7 °F 29.88 in Calm     77.5% 0.01 in 0 W/m2
23:34 73 °F 66.2 °F 29.88 in Calm     79.2% 0.01 in 0 W/m2
23:39 72.8 °F 66.4 °F 29.88 in Calm     80.4% 0.01 in 0 W/m2
23:44 72.6 °F 66.4 °F 29.88 in Calm     81% 0.01 in 0 W/m2
23:49 72.4 °F 66.6 °F 29.88 in Calm     81.9% 0.01 in 0 W/m2
23:54 72.3 °F 66.5 °F 29.88 in Calm     82.2% 0.01 in 0 W/m2
23:59 72.1 °F 66.7 °F 29.88 in Calm     83% 0.01 in 0 W/m2
Hartford County Weather
Compliments of Weather Underground - 4 mb